sensor_id;sensor_type;location;lat;lon;timestamp;P1;durP1;ratioP1;P2;durP2;ratioP2
13834;SDS011;6988;52.614;13.500;2023-12-14T00:02:54;24.40;;;14.43;;
13834;SDS011;6988;52.614;13.500;2023-12-14T00:07:48;19.73;;;14.53;;
13834;SDS011;6988;52.614;13.500;2023-12-14T00:12:40;25.77;;;14.13;;
13834;SDS011;6988;52.614;13.500;2023-12-14T00:17:32;23.67;;;14.20;;
13834;SDS011;6988;52.614;13.500;2023-12-14T00:22:25;22.70;;;14.50;;
13834;SDS011;6988;52.614;13.500;2023-12-14T00:27:17;19.80;;;13.37;;
13834;SDS011;6988;52.614;13.500;2023-12-14T00:32:09;23.37;;;14.27;;
13834;SDS011;6988;52.614;13.500;2023-12-14T00:37:01;22.90;;;13.10;;
13834;SDS011;6988;52.614;13.500;2023-12-14T00:41:54;23.83;;;13.30;;
13834;SDS011;6988;52.614;13.500;2023-12-14T00:46:46;20.73;;;11.90;;
13834;SDS011;6988;52.614;13.500;2023-12-14T00:51:38;17.17;;;11.20;;
13834;SDS011;6988;52.614;13.500;2023-12-14T00:56:30;17.30;;;10.37;;
13834;SDS011;6988;52.614;13.500;2023-12-14T01:01:23;17.77;;;10.50;;
13834;SDS011;6988;52.614;13.500;2023-12-14T01:06:16;17.93;;;10.07;;
13834;SDS011;6988;52.614;13.500;2023-12-14T01:11:08;16.00;;;10.27;;
13834;SDS011;6988;52.614;13.500;2023-12-14T01:16:01;15.67;;;10.10;;
13834;SDS011;6988;52.614;13.500;2023-12-14T01:20:54;12.90;;;8.73;;
13834;SDS011;6988;52.614;13.500;2023-12-14T01:25:47;13.47;;;9.30;;
13834;SDS011;6988;52.614;13.500;2023-12-14T01:30:39;14.80;;;9.60;;
13834;SDS011;6988;52.614;13.500;2023-12-14T01:35:31;14.30;;;8.97;;
13834;SDS011;6988;52.614;13.500;2023-12-14T01:40:25;14.30;;;9.47;;
13834;SDS011;6988;52.614;13.500;2023-12-14T01:45:17;16.30;;;10.07;;
13834;SDS011;6988;52.614;13.500;2023-12-14T01:50:10;14.03;;;9.80;;
13834;SDS011;6988;52.614;13.500;2023-12-14T01:55:02;18.00;;;10.33;;
13834;SDS011;6988;52.614;13.500;2023-12-14T01:59:56;15.07;;;10.23;;
13834;SDS011;6988;52.614;13.500;2023-12-14T02:04:48;15.70;;;10.50;;
13834;SDS011;6988;52.614;13.500;2023-12-14T02:09:40;13.37;;;10.07;;
13834;SDS011;6988;52.614;13.500;2023-12-14T02:14:32;17.20;;;11.27;;
13834;SDS011;6988;52.614;13.500;2023-12-14T02:19:26;15.33;;;11.17;;
13834;SDS011;6988;52.614;13.500;2023-12-14T02:24:19;18.47;;;11.43;;
13834;SDS011;6988;52.614;13.500;2023-12-14T02:29:12;17.83;;;10.30;;
13834;SDS011;6988;52.614;13.500;2023-12-14T02:34:04;18.57;;;11.13;;
13834;SDS011;6988;52.614;13.500;2023-12-14T02:38:56;15.07;;;11.17;;
13834;SDS011;6988;52.614;13.500;2023-12-14T02:43:49;16.20;;;11.63;;
13834;SDS011;6988;52.614;13.500;2023-12-14T02:48:41;16.30;;;11.83;;
13834;SDS011;6988;52.614;13.500;2023-12-14T02:53:33;14.87;;;10.10;;
13834;SDS011;6988;52.614;13.500;2023-12-14T02:58:25;14.67;;;10.77;;
13834;SDS011;6988;52.614;13.500;2023-12-14T03:03:19;17.40;;;11.50;;
13834;SDS011;6988;52.614;13.500;2023-12-14T03:08:12;19.67;;;10.80;;
13834;SDS011;6988;52.614;13.500;2023-12-14T03:13:04;16.40;;;10.67;;
13834;SDS011;6988;52.614;13.500;2023-12-14T03:17:56;11.10;;;8.47;;
13834;SDS011;6988;52.614;13.500;2023-12-14T03:22:49;12.70;;;8.93;;
13834;SDS011;6988;52.614;13.500;2023-12-14T03:27:41;11.07;;;7.90;;
13834;SDS011;6988;52.614;13.500;2023-12-14T03:32:33;11.57;;;8.30;;
13834;SDS011;6988;52.614;13.500;2023-12-14T03:37:25;13.37;;;8.60;;
13834;SDS011;6988;52.614;13.500;2023-12-14T03:42:19;12.57;;;8.73;;
13834;SDS011;6988;52.614;13.500;2023-12-14T03:47:11;11.30;;;8.57;;
13834;SDS011;6988;52.614;13.500;2023-12-14T03:52:03;13.33;;;8.80;;
13834;SDS011;6988;52.614;13.500;2023-12-14T03:56:56;14.87;;;9.47;;
13834;SDS011;6988;52.614;13.500;2023-12-14T04:01:49;13.00;;;8.77;;
13834;SDS011;6988;52.614;13.500;2023-12-14T04:06:41;12.90;;;9.53;;
13834;SDS011;6988;52.614;13.500;2023-12-14T04:11:33;14.07;;;9.73;;
13834;SDS011;6988;52.614;13.500;2023-12-14T04:16:25;14.90;;;9.83;;
13834;SDS011;6988;52.614;13.500;2023-12-14T04:21:19;16.53;;;10.23;;
13834;SDS011;6988;52.614;13.500;2023-12-14T04:26:11;14.93;;;9.87;;
13834;SDS011;6988;52.614;13.500;2023-12-14T04:31:04;15.87;;;10.20;;
13834;SDS011;6988;52.614;13.500;2023-12-14T04:35:56;13.70;;;9.67;;
13834;SDS011;6988;52.614;13.500;2023-12-14T04:40:50;14.33;;;10.37;;
13834;SDS011;6988;52.614;13.500;2023-12-14T04:45:42;16.67;;;10.73;;
13834;SDS011;6988;52.614;13.500;2023-12-14T04:50:34;17.40;;;11.13;;
13834;SDS011;6988;52.614;13.500;2023-12-14T04:55:27;15.70;;;10.90;;
13834;SDS011;6988;52.614;13.500;2023-12-14T05:00:20;15.10;;;11.40;;
13834;SDS011;6988;52.614;13.500;2023-12-14T05:05:13;12.80;;;10.10;;
13834;SDS011;6988;52.614;13.500;2023-12-14T05:10:05;14.77;;;10.40;;
13834;SDS011;6988;52.614;13.500;2023-12-14T05:14:59;13.07;;;10.27;;
13834;SDS011;6988;52.614;13.500;2023-12-14T05:19:53;14.13;;;10.17;;
13834;SDS011;6988;52.614;13.500;2023-12-14T05:24:46;13.70;;;10.50;;
13834;SDS011;6988;52.614;13.500;2023-12-14T05:29:39;13.07;;;10.70;;
13834;SDS011;6988;52.614;13.500;2023-12-14T05:34:31;13.50;;;10.50;;
13834;SDS011;6988;52.614;13.500;2023-12-14T05:39:24;13.10;;;10.53;;
13834;SDS011;6988;52.614;13.500;2023-12-14T05:44:16;14.50;;;10.80;;
13834;SDS011;6988;52.614;13.500;2023-12-14T05:49:08;13.20;;;10.97;;
13834;SDS011;6988;52.614;13.500;2023-12-14T05:54:01;15.83;;;11.93;;
13834;SDS011;6988;52.614;13.500;2023-12-14T05:58:55;15.73;;;11.20;;
13834;SDS011;6988;52.614;13.500;2023-12-14T06:03:47;15.63;;;12.30;;
13834;SDS011;6988;52.614;13.500;2023-12-14T06:08:39;13.90;;;10.23;;
13834;SDS011;6988;52.614;13.500;2023-12-14T06:13:32;11.43;;;9.60;;
13834;SDS011;6988;52.614;13.500;2023-12-14T06:18:25;11.70;;;9.20;;
13834;SDS011;6988;52.614;13.500;2023-12-14T06:23:18;11.60;;;9.63;;
13834;SDS011;6988;52.614;13.500;2023-12-14T06:28:10;11.73;;;9.73;;
13834;SDS011;6988;52.614;13.500;2023-12-14T06:33:03;12.43;;;10.33;;
13834;SDS011;6988;52.614;13.500;2023-12-14T06:37:57;12.60;;;9.60;;
13834;SDS011;6988;52.614;13.500;2023-12-14T06:42:49;12.37;;;10.53;;
13834;SDS011;6988;52.614;13.500;2023-12-14T06:47:42;14.57;;;11.10;;
13834;SDS011;6988;52.614;13.500;2023-12-14T06:52:36;15.03;;;11.67;;
13834;SDS011;6988;52.614;13.500;2023-12-14T06:57:29;16.87;;;11.77;;
13834;SDS011;6988;52.614;13.500;2023-12-14T07:02:21;14.83;;;11.33;;
13834;SDS011;6988;52.614;13.500;2023-12-14T07:07:14;16.67;;;13.10;;
13834;SDS011;6988;52.614;13.500;2023-12-14T07:12:07;15.67;;;12.50;;
13834;SDS011;6988;52.614;13.500;2023-12-14T07:17:03;20.10;;;13.30;;
13834;SDS011;6988;52.614;13.500;2023-12-14T07:21:55;18.70;;;14.03;;
13834;SDS011;6988;52.614;13.500;2023-12-14T07:26:47;18.67;;;13.20;;
13834;SDS011;6988;52.614;13.500;2023-12-14T07:31:40;18.83;;;13.67;;
13834;SDS011;6988;52.614;13.500;2023-12-14T07:36:33;18.83;;;13.67;;
13834;SDS011;6988;52.614;13.500;2023-12-14T07:41:26;16.70;;;13.80;;
13834;SDS011;6988;52.614;13.500;2023-12-14T07:46:19;19.57;;;13.70;;
13834;SDS011;6988;52.614;13.500;2023-12-14T07:51:12;17.50;;;13.97;;
13834;SDS011;6988;52.614;13.500;2023-12-14T07:56:06;17.67;;;13.73;;
13834;SDS011;6988;52.614;13.500;2023-12-14T08:00:58;19.37;;;14.67;;
13834;SDS011;6988;52.614;13.500;2023-12-14T08:05:51;19.93;;;14.07;;
13834;SDS011;6988;52.614;13.500;2023-12-14T08:10:43;22.20;;;15.77;;
13834;SDS011;6988;52.614;13.500;2023-12-14T08:15:36;19.03;;;14.20;;
13834;SDS011;6988;52.614;13.500;2023-12-14T08:20:28;19.43;;;15.30;;
13834;SDS011;6988;52.614;13.500;2023-12-14T08:25:20;20.80;;;15.33;;
13834;SDS011;6988;52.614;13.500;2023-12-14T08:30:12;20.03;;;14.80;;
13834;SDS011;6988;52.614;13.500;2023-12-14T08:35:07;19.80;;;14.23;;
13834;SDS011;6988;52.614;13.500;2023-12-14T08:40:00;21.57;;;14.77;;
13834;SDS011;6988;52.614;13.500;2023-12-14T08:44:53;18.47;;;14.07;;
13834;SDS011;6988;52.614;13.500;2023-12-14T08:49:45;19.43;;;14.30;;
13834;SDS011;6988;52.614;13.500;2023-12-14T08:54:39;20.07;;;14.43;;
13834;SDS011;6988;52.614;13.500;2023-12-14T08:59:33;18.73;;;14.07;;
13834;SDS011;6988;52.614;13.500;2023-12-14T09:04:25;20.23;;;13.97;;
13834;SDS011;6988;52.614;13.500;2023-12-14T09:09:17;19.67;;;13.87;;
13834;SDS011;6988;52.614;13.500;2023-12-14T09:14:11;17.63;;;13.13;;
13834;SDS011;6988;52.614;13.500;2023-12-14T09:19:03;19.07;;;13.13;;
13834;SDS011;6988;52.614;13.500;2023-12-14T09:23:55;20.57;;;14.97;;
13834;SDS011;6988;52.614;13.500;2023-12-14T09:28:47;19.83;;;14.23;;
13834;SDS011;6988;52.614;13.500;2023-12-14T09:33:41;20.77;;;14.90;;
13834;SDS011;6988;52.614;13.500;2023-12-14T09:38:33;21.30;;;14.77;;
13834;SDS011;6988;52.614;13.500;2023-12-14T09:43:26;19.37;;;14.13;;
13834;SDS011;6988;52.614;13.500;2023-12-14T09:48:18;20.70;;;15.03;;
13834;SDS011;6988;52.614;13.500;2023-12-14T09:53:14;20.10;;;14.03;;
13834;SDS011;6988;52.614;13.500;2023-12-14T09:58:06;18.50;;;13.53;;
13834;SDS011;6988;52.614;13.500;2023-12-14T10:08:12;19.53;;;13.50;;
13834;SDS011;6988;52.614;13.500;2023-12-14T10:13:06;19.97;;;13.93;;
13834;SDS011;6988;52.614;13.500;2023-12-14T10:17:58;17.20;;;13.27;;
13834;SDS011;6988;52.614;13.500;2023-12-14T10:22:50;17.90;;;12.73;;
13834;SDS011;6988;52.614;13.500;2023-12-14T10:27:47;19.67;;;13.63;;
13834;SDS011;6988;52.614;13.500;2023-12-14T10:32:42;17.07;;;13.37;;
13834;SDS011;6988;52.614;13.500;2023-12-14T10:37:35;19.07;;;13.07;;
13834;SDS011;6988;52.614;13.500;2023-12-14T10:42:29;16.43;;;12.83;;
13834;SDS011;6988;52.614;13.500;2023-12-14T10:47:22;16.43;;;12.80;;
13834;SDS011;6988;52.614;13.500;2023-12-14T10:52:15;17.13;;;12.77;;
13834;SDS011;6988;52.614;13.500;2023-12-14T10:57:08;17.87;;;12.10;;
13834;SDS011;6988;52.614;13.500;2023-12-14T11:02:00;17.07;;;12.07;;
13834;SDS011;6988;52.614;13.500;2023-12-14T11:07:02;15.80;;;11.73;;
13834;SDS011;6988;52.614;13.500;2023-12-14T11:11:56;14.90;;;11.67;;
13834;SDS011;6988;52.614;13.500;2023-12-14T11:16:50;16.80;;;11.97;;
13834;SDS011;6988;52.614;13.500;2023-12-14T11:21:45;17.33;;;12.80;;
13834;SDS011;6988;52.614;13.500;2023-12-14T11:26:39;17.80;;;12.13;;
13834;SDS011;6988;52.614;13.500;2023-12-14T11:31:31;15.83;;;11.73;;
13834;SDS011;6988;52.614;13.500;2023-12-14T11:36:25;16.43;;;11.60;;
13834;SDS011;6988;52.614;13.500;2023-12-14T11:41:17;16.33;;;12.17;;
13834;SDS011;6988;52.614;13.500;2023-12-14T11:46:11;17.60;;;11.43;;
13834;SDS011;6988;52.614;13.500;2023-12-14T11:51:05;16.03;;;11.67;;
13834;SDS011;6988;52.614;13.500;2023-12-14T11:55:58;16.63;;;11.80;;
13834;SDS011;6988;52.614;13.500;2023-12-14T12:00:52;16.93;;;11.60;;
13834;SDS011;6988;52.614;13.500;2023-12-14T12:05:47;15.00;;;11.97;;
13834;SDS011;6988;52.614;13.500;2023-12-14T12:10:42;15.13;;;11.83;;
13834;SDS011;6988;52.614;13.500;2023-12-14T12:15:34;17.43;;;12.27;;
13834;SDS011;6988;52.614;13.500;2023-12-14T12:20:27;16.70;;;11.90;;
13834;SDS011;6988;52.614;13.500;2023-12-14T12:25:20;15.20;;;11.60;;
13834;SDS011;6988;52.614;13.500;2023-12-14T12:30:13;16.50;;;12.20;;
13834;SDS011;6988;52.614;13.500;2023-12-14T12:35:06;15.93;;;11.20;;
13834;SDS011;6988;52.614;13.500;2023-12-14T12:39:58;13.57;;;10.60;;
13834;SDS011;6988;52.614;13.500;2023-12-14T12:44:52;13.30;;;10.57;;
13834;SDS011;6988;52.614;13.500;2023-12-14T12:49:44;15.23;;;10.53;;
13834;SDS011;6988;52.614;13.500;2023-12-14T12:54:36;14.90;;;10.23;;
13834;SDS011;6988;52.614;13.500;2023-12-14T12:59:28;14.00;;;10.13;;
13834;SDS011;6988;52.614;13.500;2023-12-14T13:04:21;14.63;;;10.67;;
13834;SDS011;6988;52.614;13.500;2023-12-14T13:09:14;13.27;;;10.40;;
13834;SDS011;6988;52.614;13.500;2023-12-14T13:14:06;13.80;;;10.47;;
13834;SDS011;6988;52.614;13.500;2023-12-14T13:18:58;14.67;;;10.90;;
13834;SDS011;6988;52.614;13.500;2023-12-14T13:23:52;14.47;;;10.67;;
13834;SDS011;6988;52.614;13.500;2023-12-14T13:28:46;15.17;;;10.93;;
13834;SDS011;6988;52.614;13.500;2023-12-14T13:33:38;16.00;;;11.40;;
13834;SDS011;6988;52.614;13.500;2023-12-14T13:38:31;17.40;;;11.83;;
13834;SDS011;6988;52.614;13.500;2023-12-14T13:43:25;16.87;;;10.97;;
13834;SDS011;6988;52.614;13.500;2023-12-14T13:48:16;15.67;;;11.27;;
13834;SDS011;6988;52.614;13.500;2023-12-14T13:53:09;16.77;;;12.57;;
13834;SDS011;6988;52.614;13.500;2023-12-14T13:58:01;16.10;;;10.93;;
13834;SDS011;6988;52.614;13.500;2023-12-14T14:02:54;15.60;;;11.07;;
13834;SDS011;6988;52.614;13.500;2023-12-14T14:07:46;17.07;;;12.10;;
13834;SDS011;6988;52.614;13.500;2023-12-14T14:12:38;15.23;;;11.43;;
13834;SDS011;6988;52.614;13.500;2023-12-14T14:17:30;14.73;;;10.43;;
13834;SDS011;6988;52.614;13.500;2023-12-14T14:22:23;15.67;;;10.70;;
13834;SDS011;6988;52.614;13.500;2023-12-14T14:27:15;15.07;;;11.80;;
13834;SDS011;6988;52.614;13.500;2023-12-14T14:32:07;14.03;;;10.60;;
13834;SDS011;6988;52.614;13.500;2023-12-14T14:36:58;14.17;;;10.70;;
13834;SDS011;6988;52.614;13.500;2023-12-14T14:41:51;14.03;;;9.57;;
13834;SDS011;6988;52.614;13.500;2023-12-14T14:46:44;13.57;;;9.93;;
13834;SDS011;6988;52.614;13.500;2023-12-14T14:51:36;14.23;;;11.00;;
13834;SDS011;6988;52.614;13.500;2023-12-14T14:56:27;14.43;;;10.83;;
13834;SDS011;6988;52.614;13.500;2023-12-14T15:01:21;14.73;;;10.57;;
13834;SDS011;6988;52.614;13.500;2023-12-14T15:06:12;13.73;;;10.07;;
13834;SDS011;6988;52.614;13.500;2023-12-14T15:11:04;15.97;;;10.23;;
13834;SDS011;6988;52.614;13.500;2023-12-14T15:15:59;14.67;;;11.10;;
13834;SDS011;6988;52.614;13.500;2023-12-14T15:20:52;15.87;;;10.93;;
13834;SDS011;6988;52.614;13.500;2023-12-14T15:25:44;14.60;;;10.60;;
13834;SDS011;6988;52.614;13.500;2023-12-14T15:30:36;14.30;;;10.13;;
13834;SDS011;6988;52.614;13.500;2023-12-14T15:35:28;15.03;;;10.07;;
13834;SDS011;6988;52.614;13.500;2023-12-14T15:40:21;15.07;;;10.80;;
13834;SDS011;6988;52.614;13.500;2023-12-14T15:45:13;15.63;;;10.83;;
13834;SDS011;6988;52.614;13.500;2023-12-14T15:50:05;14.37;;;10.90;;
13834;SDS011;6988;52.614;13.500;2023-12-14T15:54:58;14.70;;;11.07;;
13834;SDS011;6988;52.614;13.500;2023-12-14T15:59:52;16.13;;;11.30;;
13834;SDS011;6988;52.614;13.500;2023-12-14T16:04:44;16.07;;;10.57;;
13834;SDS011;6988;52.614;13.500;2023-12-14T16:09:36;13.63;;;10.23;;
13834;SDS011;6988;52.614;13.500;2023-12-14T16:14:28;16.23;;;10.90;;
13834;SDS011;6988;52.614;13.500;2023-12-14T16:19:21;17.13;;;11.60;;
13834;SDS011;6988;52.614;13.500;2023-12-14T16:24:12;16.37;;;11.20;;
13834;SDS011;6988;52.614;13.500;2023-12-14T16:29:04;13.83;;;10.23;;
13834;SDS011;6988;52.614;13.500;2023-12-14T16:33:56;13.20;;;9.80;;
13834;SDS011;6988;52.614;13.500;2023-12-14T16:38:49;15.03;;;10.70;;
13834;SDS011;6988;52.614;13.500;2023-12-14T16:43:41;15.77;;;10.97;;
13834;SDS011;6988;52.614;13.500;2023-12-14T16:48:33;15.87;;;10.73;;
13834;SDS011;6988;52.614;13.500;2023-12-14T16:53:25;14.83;;;10.47;;
13834;SDS011;6988;52.614;13.500;2023-12-14T16:58:18;15.47;;;10.43;;
13834;SDS011;6988;52.614;13.500;2023-12-14T17:03:10;15.90;;;11.27;;
13834;SDS011;6988;52.614;13.500;2023-12-14T17:08:02;14.53;;;11.17;;
13834;SDS011;6988;52.614;13.500;2023-12-14T17:12:54;16.33;;;11.33;;
13834;SDS011;6988;52.614;13.500;2023-12-14T17:17:47;15.80;;;11.47;;
13834;SDS011;6988;52.614;13.500;2023-12-14T17:22:40;17.17;;;11.37;;
13834;SDS011;6988;52.614;13.500;2023-12-14T17:27:31;13.57;;;10.30;;
13834;SDS011;6988;52.614;13.500;2023-12-14T17:32:24;15.13;;;10.77;;
13834;SDS011;6988;52.614;13.500;2023-12-14T17:37:17;14.07;;;10.40;;
13834;SDS011;6988;52.614;13.500;2023-12-14T17:42:10;14.47;;;10.93;;
13834;SDS011;6988;52.614;13.500;2023-12-14T17:47:02;14.93;;;10.57;;
13834;SDS011;6988;52.614;13.500;2023-12-14T17:51:54;14.23;;;10.53;;
13834;SDS011;6988;52.614;13.500;2023-12-14T17:56:47;15.97;;;11.23;;
13834;SDS011;6988;52.614;13.500;2023-12-14T18:01:42;16.20;;;10.80;;
13834;SDS011;6988;52.614;13.500;2023-12-14T18:06:39;16.57;;;11.60;;
13834;SDS011;6988;52.614;13.500;2023-12-14T18:11:32;16.53;;;11.37;;
13834;SDS011;6988;52.614;13.500;2023-12-14T18:16:25;14.20;;;10.53;;
13834;SDS011;6988;52.614;13.500;2023-12-14T18:21:17;16.43;;;11.87;;
13834;SDS011;6988;52.614;13.500;2023-12-14T18:26:09;17.80;;;11.93;;
13834;SDS011;6988;52.614;13.500;2023-12-14T18:31:00;16.77;;;12.03;;
13834;SDS011;6988;52.614;13.500;2023-12-14T18:35:53;19.07;;;12.07;;
13834;SDS011;6988;52.614;13.500;2023-12-14T18:40:45;16.40;;;11.63;;
13834;SDS011;6988;52.614;13.500;2023-12-14T18:45:37;17.07;;;11.77;;
13834;SDS011;6988;52.614;13.500;2023-12-14T18:50:29;14.97;;;11.27;;
13834;SDS011;6988;52.614;13.500;2023-12-14T18:55:26;16.43;;;10.70;;
13834;SDS011;6988;52.614;13.500;2023-12-14T19:00:22;18.70;;;11.77;;
13834;SDS011;6988;52.614;13.500;2023-12-14T19:05:14;15.00;;;10.57;;
13834;SDS011;6988;52.614;13.500;2023-12-14T19:10:08;17.40;;;11.50;;
13834;SDS011;6988;52.614;13.500;2023-12-14T19:15:06;15.53;;;12.30;;
13834;SDS011;6988;52.614;13.500;2023-12-14T19:19:59;18.37;;;11.80;;
13834;SDS011;6988;52.614;13.500;2023-12-14T19:24:51;17.77;;;11.40;;
13834;SDS011;6988;52.614;13.500;2023-12-14T19:29:43;16.53;;;10.77;;
13834;SDS011;6988;52.614;13.500;2023-12-14T19:34:36;19.70;;;11.77;;
13834;SDS011;6988;52.614;13.500;2023-12-14T19:39:28;20.17;;;13.30;;
13834;SDS011;6988;52.614;13.500;2023-12-14T19:44:23;18.03;;;12.57;;
13834;SDS011;6988;52.614;13.500;2023-12-14T19:49:15;17.90;;;12.30;;
13834;SDS011;6988;52.614;13.500;2023-12-14T19:54:08;16.27;;;12.00;;
13834;SDS011;6988;52.614;13.500;2023-12-14T19:59:00;18.50;;;11.67;;
13834;SDS011;6988;52.614;13.500;2023-12-14T20:03:52;17.33;;;11.60;;
13834;SDS011;6988;52.614;13.500;2023-12-14T20:08:43;18.60;;;11.77;;
13834;SDS011;6988;52.614;13.500;2023-12-14T20:13:37;19.03;;;12.17;;
13834;SDS011;6988;52.614;13.500;2023-12-14T20:18:28;19.00;;;12.90;;
13834;SDS011;6988;52.614;13.500;2023-12-14T20:23:21;18.03;;;12.70;;
13834;SDS011;6988;52.614;13.500;2023-12-14T20:28:13;16.03;;;11.70;;
13834;SDS011;6988;52.614;13.500;2023-12-14T20:33:06;18.37;;;12.60;;
13834;SDS011;6988;52.614;13.500;2023-12-14T20:37:58;18.63;;;13.10;;
13834;SDS011;6988;52.614;13.500;2023-12-14T20:42:52;18.13;;;12.73;;
13834;SDS011;6988;52.614;13.500;2023-12-14T20:47:45;17.83;;;12.23;;
13834;SDS011;6988;52.614;13.500;2023-12-14T20:52:38;18.70;;;13.60;;
13834;SDS011;6988;52.614;13.500;2023-12-14T20:57:31;17.30;;;12.60;;
13834;SDS011;6988;52.614;13.500;2023-12-14T21:02:23;18.50;;;12.50;;
13834;SDS011;6988;52.614;13.500;2023-12-14T21:07:15;17.93;;;13.23;;
13834;SDS011;6988;52.614;13.500;2023-12-14T21:12:09;20.03;;;13.33;;
13834;SDS011;6988;52.614;13.500;2023-12-14T21:17:01;18.77;;;13.43;;
13834;SDS011;6988;52.614;13.500;2023-12-14T21:21:54;17.97;;;12.30;;
13834;SDS011;6988;52.614;13.500;2023-12-14T21:26:49;16.07;;;12.53;;
13834;SDS011;6988;52.614;13.500;2023-12-14T21:31:56;19.73;;;12.50;;
13834;SDS011;6988;52.614;13.500;2023-12-14T21:36:47;17.90;;;12.80;;
13834;SDS011;6988;52.614;13.500;2023-12-14T21:41:39;20.77;;;13.13;;
13834;SDS011;6988;52.614;13.500;2023-12-14T21:46:31;19.70;;;12.30;;
13834;SDS011;6988;52.614;13.500;2023-12-14T21:51:25;17.47;;;12.63;;
13834;SDS011;6988;52.614;13.500;2023-12-14T21:56:17;20.17;;;12.33;;
13834;SDS011;6988;52.614;13.500;2023-12-14T22:01:09;15.87;;;12.13;;
13834;SDS011;6988;52.614;13.500;2023-12-14T22:06:01;16.53;;;11.40;;
13834;SDS011;6988;52.614;13.500;2023-12-14T22:10:55;14.30;;;10.83;;
13834;SDS011;6988;52.614;13.500;2023-12-14T22:15:46;17.17;;;11.50;;
13834;SDS011;6988;52.614;13.500;2023-12-14T22:20:38;18.57;;;11.83;;
13834;SDS011;6988;52.614;13.500;2023-12-14T22:25:30;17.07;;;12.03;;
13834;SDS011;6988;52.614;13.500;2023-12-14T22:30:23;17.40;;;11.33;;
13834;SDS011;6988;52.614;13.500;2023-12-14T22:35:15;14.03;;;10.37;;
13834;SDS011;6988;52.614;13.500;2023-12-14T22:40:08;15.17;;;10.80;;
13834;SDS011;6988;52.614;13.500;2023-12-14T22:45:02;13.77;;;10.47;;
